EZY8653 EGKK-LCPH
Flight info
| Callsign | EZY8653 |
|---|---|
| Flight time | N/A |
| Altitude | 39000 |
| Route | MIMFO Y312 DVR UL9 KONAN DCT KOK DCT LIRSU DCT VIBOM DCT NOMBO DCT RIDAR DCT RADIZ DCT LUMUS DCT KUSIB DCT BOSNA DCT MODRA DCT MEDUX UM867 KOGAT DCT DISOR DCT FSK DCT RIKSO UN127 IMR UG80 BANRO DCT RDS UM601 EVENO DCT DASNI/N0414F330 DCT TOBAL |
| Aircraft | A20N/M-SDE2E3FGHIRWXY/LB1 |
Departure
| Time | 2026-05-04 13:29 |
|---|---|
| Airport | London Gatwick Airport (EGKK) |
Arrival
| Time | N/A |
|---|---|
| Airport | Paphos International Airport (LCPH) |
| Time | Latitude | Longitude | Altitude | Speed | Heading |
|---|---|---|---|---|---|
| 2026-05-04 12:56 | 51.15857 | -0.17425 | 204 ft | 0 kts | 349° |
| 2026-05-04 13:11 | 51.15838 | -0.17419 | 209 ft | 4 kts | 349° |
| 2026-05-04 13:11 | 51.15812 | -0.17411 | 204 ft | 4 kts | 349° |
| 2026-05-04 13:11 | 51.15789 | -0.17402 | 214 ft | 3 kts | 327° |
| 2026-05-04 13:11 | 51.15779 | -0.17384 | 214 ft | 0 kts | 263° |
| 2026-05-04 13:14 | 51.15778 | -0.17397 | 211 ft | 4 kts | 261° |
| 2026-05-04 13:14 | 51.15764 | -0.17504 | 214 ft | 15 kts | 258° |
| 2026-05-04 13:14 | 51.15737 | -0.17694 | 209 ft | 19 kts | 256° |
| 2026-05-04 13:15 | 51.15730 | -0.17740 | 210 ft | 0 kts | 256° |
| 2026-05-04 13:15 | 51.15735 | -0.17707 | 214 ft | 3 kts | 256° |
| 2026-05-04 13:16 | 51.15773 | -0.17447 | 209 ft | 0 kts | 255° |
| 2026-05-04 13:18 | 51.15773 | -0.17449 | 208 ft | 1 kts | 254° |
| 2026-05-04 13:18 | 51.15765 | -0.17479 | 207 ft | 5 kts | 237° |
| 2026-05-04 13:19 | 51.15697 | -0.17490 | 214 ft | 15 kts | 167° |
| 2026-05-04 13:19 | 51.15580 | -0.17454 | 210 ft | 17 kts | 188° |
| 2026-05-04 13:19 | 51.15527 | -0.17609 | 212 ft | 17 kts | 257° |
| 2026-05-04 13:19 | 51.15499 | -0.17808 | 210 ft | 19 kts | 257° |
| 2026-05-04 13:20 | 51.15475 | -0.17979 | 214 ft | 0 kts | 257° |
| 2026-05-04 13:20 | 51.15473 | -0.17995 | 215 ft | 0 kts | 259° |
| 2026-05-04 13:22 | 51.15473 | -0.18000 | 214 ft | 2 kts | 259° |
| 2026-05-04 13:22 | 51.15462 | -0.18100 | 209 ft | 14 kts | 260° |
| 2026-05-04 13:22 | 51.15428 | -0.18265 | 208 ft | 15 kts | 226° |
| 2026-05-04 13:22 | 51.15323 | -0.18254 | 205 ft | 17 kts | 167° |
| 2026-05-04 13:23 | 51.15204 | -0.18239 | 209 ft | 17 kts | 211° |
| 2026-05-04 13:23 | 51.15169 | -0.18422 | 213 ft | 19 kts | 258° |
| 2026-05-04 13:23 | 51.15142 | -0.18637 | 213 ft | 21 kts | 258° |
| 2026-05-04 13:23 | 51.15111 | -0.18874 | 212 ft | 23 kts | 258° |
| 2026-05-04 13:24 | 51.15087 | -0.19049 | 213 ft | 24 kts | 258° |
| 2026-05-04 13:24 | 51.15053 | -0.19245 | 208 ft | 7 kts | 229° |
| 2026-05-04 13:24 | 51.15008 | -0.19261 | 210 ft | 9 kts | 168° |
| 2026-05-04 13:25 | 51.14917 | -0.19595 | 205 ft | 24 kts | 257° |
| 2026-05-04 13:25 | 51.14879 | -0.19869 | 209 ft | 27 kts | 257° |
| 2026-05-04 13:25 | 51.14837 | -0.20171 | 205 ft | 29 kts | 257° |
| 2026-05-04 13:25 | 51.14794 | -0.20485 | 207 ft | 22 kts | 258° |
| 2026-05-04 13:26 | 51.14782 | -0.20579 | 205 ft | 9 kts | 258° |
| 2026-05-04 13:26 | 51.14754 | -0.20710 | 205 ft | 15 kts | 221° |
| 2026-05-04 13:26 | 51.14738 | -0.20720 | 204 ft | 3 kts | 191° |
| 2026-05-04 13:26 | 51.14703 | -0.20713 | 205 ft | 7 kts | 165° |
| 2026-05-04 13:27 | 51.14696 | -0.20710 | 205 ft | 0 kts | 166° |
| 2026-05-04 13:27 | 51.14674 | -0.20701 | 203 ft | 10 kts | 166° |
| 2026-05-04 13:27 | 51.14595 | -0.20657 | 213 ft | 12 kts | 131° |
| 2026-05-04 13:28 | 51.14600 | -0.20543 | 215 ft | 12 kts | 77° |
| 2026-05-04 13:28 | 51.14632 | -0.20321 | 210 ft | 44 kts | 77° |
| 2026-05-04 13:28 | 51.14699 | -0.19840 | 209 ft | 88 kts | 77° |
| 2026-05-04 13:28 | 51.14949 | -0.18046 | 215 ft | 154 kts | 76° |
| 2026-05-04 13:29 | 51.15202 | -0.16391 | 757 ft | 153 kts | 74° |
| 2026-05-04 13:29 | 51.15469 | -0.14754 | 1342 ft | 157 kts | 77° |
| 2026-05-04 13:29 | 51.15696 | -0.13024 | 1898 ft | 162 kts | 78° |
| 2026-05-04 13:29 | 51.15924 | -0.11172 | 2270 ft | 179 kts | 78° |
| 2026-05-04 13:30 | 51.16102 | -0.09097 | 2648 ft | 200 kts | 93° |
| 2026-05-04 13:30 | 51.15666 | -0.06904 | 3114 ft | 218 kts | 120° |
| 2026-05-04 13:30 | 51.14927 | -0.04654 | 3544 ft | 241 kts | 112° |
| 2026-05-04 13:30 | 51.14283 | -0.02059 | 4066 ft | 260 kts | 111° |
| 2026-05-04 13:31 | 51.13620 | 0.00675 | 4908 ft | 267 kts | 111° |
| 2026-05-04 13:31 | 51.13174 | 0.02513 | 5479 ft | 270 kts | 111° |
| 2026-05-04 13:31 | 51.12283 | 0.06247 | 6674 ft | 276 kts | 111° |
| 2026-05-04 13:31 | 51.11608 | 0.09143 | 7257 ft | 284 kts | 111° |
| 2026-05-04 13:32 | 51.10931 | 0.12083 | 7368 ft | 281 kts | 111° |
| 2026-05-04 13:32 | 51.10259 | 0.15001 | 7484 ft | 282 kts | 111° |
| 2026-05-04 13:32 | 51.09579 | 0.17946 | 7946 ft | 284 kts | 111° |
| 2026-05-04 13:32 | 51.09124 | 0.19906 | 8592 ft | 284 kts | 111° |
| 2026-05-04 13:33 | 51.08293 | 0.22738 | 9509 ft | 284 kts | 128° |
| 2026-05-04 13:33 | 51.06818 | 0.24812 | 10286 ft | 287 kts | 153° |
| 2026-05-04 13:33 | 51.04868 | 0.25778 | 10620 ft | 307 kts | 176° |
| 2026-05-04 13:33 | 51.02664 | 0.25557 | 10890 ft | 328 kts | 190° |
| 2026-05-04 13:34 | 51.00392 | 0.24806 | 11537 ft | 335 kts | 193° |
| 2026-05-04 13:34 | 50.98105 | 0.24006 | 12342 ft | 338 kts | 192° |
| 2026-05-04 13:34 | 50.95771 | 0.23274 | 13119 ft | 342 kts | 191° |
| 2026-05-04 13:34 | 50.93412 | 0.22618 | 13888 ft | 346 kts | 190° |
| 2026-05-04 13:35 | 50.91050 | 0.22011 | 14590 ft | 349 kts | 189° |